CheckWX is a tool to help pilots better visualize weather data.  It is not intended as a substitute for an official pre-flight weather briefing.

12:24:02 UTC

CYBC METAR
Baie Comeau Airport
Baie-Comeau, Quebec, Canada
Current

24 mins ago

CYBC 181200Z AUTO 27007KT 9SM CLR M21/M26 A3004 RMK SLP176
Observed
Feb-18 @ 12:00 UTC
Wind
  • 270° at 7 KTS
Visibility
9 SM
Flight Rules
VFR
Cloud Levels
  • Clear skies
Temperature
-21°C / -6°F
Dewpoint
-26°C / -15°F
Humidity
64%
Altimeter
30.04" Hg
Pressure
1017.6 hPa
Previous

1 hour ago

CYBC 181100Z AUTO 31005KT 9SM CLR M19/M25 A3003 RMK SLP173
Observed
Feb-18 @ 11:00 UTC
Wind
  • 310° at 5 KTS
Visibility
9 SM
Flight Rules
VFR
Cloud Levels
  • Clear skies
Temperature
-19°C / -2°F
Dewpoint
-25°C / -13°F
Humidity
59%
Altimeter
30.03" Hg
Pressure
1017.3 hPa
Previous

2 hours ago

CYBC 181000Z AUTO 27007KT 9SM CLR M20/M25 A3004 RMK SLP176
Observed
Feb-18 @ 10:00 UTC
Wind
  • 270° at 7 KTS
Visibility
9 SM
Flight Rules
VFR
Cloud Levels
  • Clear skies
Temperature
-20°C / -4°F
Dewpoint
-25°C / -13°F
Humidity
65%
Altimeter
30.04" Hg
Pressure
1017.6 hPa